Time;durP1;ratioP1;P1;durP2;ratioP2;P2;SDS_P1;SDS_P2;PMS_P1;PMS_P2;Temp;Humidity;BMP_temperature;BMP_pressure;BME280_temperature;BME280_humidity;BME280_pressure;Samples;Min_cycle;Max_cycle;Signal;HPM_P1;HPM_P2
2023/06/15 00:01:42;;;;;;;9.68;3.30;;;16.00;99.90;;;;;;5074287;28;20037;-78
2023/06/15 00:04:08;;;;;;;9.32;3.33;;;16.00;99.90;;;;;;5074057;28;20105;-78
2023/06/15 00:06:33;;;;;;;9.80;3.47;;;16.00;99.90;;;;;;5060071;28;20044;-78
2023/06/15 00:08:59;;;;;;;11.00;3.50;;;16.00;99.90;;;;;;5073545;28;20053;-78
2023/06/15 00:11:25;;;;;;;10.77;3.70;;;15.90;99.90;;;;;;5067909;28;20084;-78
2023/06/15 00:13:51;;;;;;;8.75;3.78;;;15.90;99.90;;;;;;5076168;28;20056;-78
2023/06/15 00:16:18;;;;;;;9.18;3.60;;;15.90;99.90;;;;;;5073720;28;20167;-78
2023/06/15 00:18:48;;;;;;;12.23;3.92;;;15.90;99.90;;;;;;5083047;28;20045;-78
2023/06/15 00:21:15;;;;;;;9.82;3.60;;;15.90;99.90;;;;;;5081973;28;20273;-78
2023/06/15 00:23:42;;;;;;;9.63;3.50;;;15.90;99.90;;;;;;5066805;28;20108;-78
2023/06/15 00:26:07;;;;;;;8.27;3.28;;;15.90;99.90;;;;;;5078138;28;20032;-78
2023/06/15 00:28:33;;;;;;;9.20;3.50;;;15.80;99.90;;;;;;5067822;28;20124;-78
2023/06/15 00:31:00;;;;;;;10.73;4.05;;;15.80;99.90;;;;;;5074829;28;20282;-78
2023/06/15 00:33:25;;;;;;;10.57;3.50;;;15.80;99.90;;;;;;5077032;28;20029;-78
2023/06/15 00:35:51;;;;;;;8.98;3.30;;;15.80;99.90;;;;;;5074046;28;20101;-78
2023/06/15 00:38:17;;;;;;;11.40;3.40;;;15.80;99.90;;;;;;5063271;28;20107;-78
2023/06/15 00:40:43;;;;;;;9.23;3.65;;;15.80;99.90;;;;;;5062118;28;20131;-78
2023/06/15 00:43:08;;;;;;;11.65;3.63;;;15.70;99.90;;;;;;5080645;28;20043;-78
2023/06/15 00:45:34;;;;;;;8.90;3.55;;;15.70;99.90;;;;;;5078346;28;20044;-78
2023/06/15 00:48:00;;;;;;;9.23;3.35;;;15.70;99.90;;;;;;5054010;28;20147;-78
2023/06/15 00:50:30;;;;;;;8.95;3.47;;;15.70;99.90;;;;;;5072107;28;20037;-78
2023/06/15 00:53:03;;;;;;;11.43;3.85;;;15.60;99.90;;;;;;5048033;28;20045;-78
2023/06/15 00:55:30;;;;;;;;;;;15.60;99.90;;;;;;5060663;28;20049;-78
2023/06/15 00:57:56;;;;;;;9.50;3.70;;;15.60;99.90;;;;;;5082476;28;20051;-78
2023/06/15 01:00:22;;;;;;;10.55;3.80;;;15.60;99.90;;;;;;5072446;28;20036;-78
2023/06/15 01:02:56;;;;;;;9.20;3.63;;;15.60;99.90;;;;;;5084503;28;20052;-78
2023/06/15 01:05:23;;;;;;;9.27;3.72;;;15.50;99.90;;;;;;5076813;28;20052;-78
2023/06/15 01:07:51;;;;;;;9.50;3.72;;;15.50;99.90;;;;;;5070375;28;20044;-78
2023/06/15 01:10:20;;;;;;;8.82;3.92;;;15.50;99.90;;;;;;5080074;28;20282;-78
2023/06/15 01:12:50;;;;;;;12.25;3.85;;;15.50;99.90;;;;;;5066380;28;20037;-78
2023/06/15 01:15:17;;;;;;;10.25;4.20;;;15.40;99.90;;;;;;5059030;28;20061;-78
2023/06/15 01:17:45;;;;;;;8.32;3.70;;;15.40;99.90;;;;;;5072400;28;20083;-78
2023/06/15 01:20:17;;;;;;;10.05;3.85;;;15.40;99.90;;;;;;5064211;28;20321;-78
2023/06/15 01:23:12;;;;;;;9.90;3.55;;;15.40;99.90;;;;;;5079558;28;20183;-78
2023/06/15 01:25:44;;;;;;;8.65;3.72;;;15.40;99.90;;;;;;5088216;28;20055;-78
2023/06/15 01:28:13;;;;;;;10.80;3.85;;;15.30;99.90;;;;;;5070680;28;20056;-78
2023/06/15 01:30:44;;;;;;;10.88;3.53;;;15.30;99.90;;;;;;5055457;28;20041;-78
2023/06/15 01:33:11;;;;;;;9.85;3.90;;;15.30;99.90;;;;;;5078436;28;20050;-78
2023/06/15 01:35:37;;;;;;;11.45;4.25;;;15.30;99.90;;;;;;5076126;28;20032;-78
2023/06/15 01:38:03;;;;;;;9.23;3.65;;;15.20;99.90;;;;;;5078471;28;20044;-78
2023/06/15 01:40:32;;;;;;;11.07;3.85;;;15.20;99.90;;;;;;5070112;28;20096;-78
2023/06/15 01:42:59;;;;;;;12.35;4.10;;;15.20;99.90;;;;;;5072792;28;20060;-78
2023/06/15 01:45:26;;;;;;;9.40;3.83;;;15.20;99.90;;;;;;5075354;28;20047;-78
2023/06/15 01:47:52;;;;;;;9.98;4.00;;;15.20;99.90;;;;;;5075483;28;20306;-78
2023/06/15 01:50:19;;;;;;;10.30;3.90;;;15.20;99.90;;;;;;5060092;28;20064;-78
2023/06/15 01:52:45;;;;;;;8.63;3.53;;;15.20;99.90;;;;;;5052616;28;20055;-78
2023/06/15 01:55:12;;;;;;;10.43;3.80;;;15.10;99.90;;;;;;5077871;28;20047;-78
2023/06/15 01:57:39;;;;;;;10.35;4.15;;;15.10;99.90;;;;;;5074364;28;20320;-78
2023/06/15 02:00:07;;;;;;;9.75;3.95;;;15.10;99.90;;;;;;5055836;28;20111;-78
2023/06/15 02:02:33;;;;;;;10.50;4.13;;;15.10;99.90;;;;;;5076165;28;20111;-78
2023/06/15 02:05:00;;;;;;;10.65;4.18;;;15.10;99.90;;;;;;5072947;28;20043;-78
2023/06/15 02:07:25;;;;;;;10.23;3.95;;;15.00;99.90;;;;;;5080613;28;20040;-78
2023/06/15 02:09:52;;;;;;;9.32;4.05;;;15.00;99.90;;;;;;5074190;28;20121;-78
2023/06/15 02:12:18;;;;;;;9.82;3.95;;;15.00;99.90;;;;;;5064367;28;20220;-78
2023/06/15 02:14:44;;;;;;;11.32;4.15;;;15.00;99.90;;;;;;5075787;28;20037;-78
2023/06/15 02:17:10;;;;;;;10.50;4.10;;;15.00;99.90;;;;;;5072925;28;20257;-78
2023/06/15 02:19:36;;;;;;;13.07;4.50;;;15.00;99.90;;;;;;5057098;28;20300;-78
2023/06/15 02:22:01;;;;;;;10.02;4.18;;;15.00;99.90;;;;;;5058983;28;20241;-78
2023/06/15 02:24:27;;;;;;;11.85;4.18;;;15.00;99.90;;;;;;5078883;28;20040;-78
2023/06/15 02:26:53;;;;;;;12.60;4.50;;;15.00;99.90;;;;;;5072086;28;20104;-78
2023/06/15 02:29:19;;;;;;;9.65;3.95;;;14.90;99.90;;;;;;5071436;28;20056;-78
2023/06/15 02:31:44;;;;;;;10.45;4.57;;;14.90;99.90;;;;;;5077447;28;20190;-78
2023/06/15 02:34:10;;;;;;;14.90;4.40;;;15.00;99.90;;;;;;5078751;28;20097;-78
2023/06/15 02:36:37;;;;;;;11.65;4.43;;;14.70;99.90;;;;;;5075511;28;20059;-78
2023/06/15 02:39:03;;;;;;;12.05;4.20;;;15.00;99.90;;;;;;5080015;28;20641;-78
2023/06/15 02:41:29;;;;;;;10.50;4.70;;;15.00;99.90;;;;;;5068816;28;20049;-78
2023/06/15 02:43:55;;;;;;;10.55;4.32;;;14.90;99.90;;;;;;5077521;28;20296;-78
2023/06/15 02:46:22;;;;;;;9.57;4.28;;;14.90;99.90;;;;;;5061333;28;20190;-78
2023/06/15 02:48:51;;;;;;;12.60;4.50;;;16.20;99.90;;;;;;5079604;28;20431;-78
2023/06/15 02:51:20;;;;;;;10.02;4.60;;;14.90;99.90;;;;;;5067548;28;20072;-78
2023/06/15 02:53:47;;;;;;;9.57;4.03;;;14.90;99.90;;;;;;5079111;28;20136;-78
2023/06/15 02:56:18;;;;;;;11.10;4.47;;;14.90;99.90;;;;;;5078784;28;20063;-78
2023/06/15 02:58:48;;;;;;;12.35;4.55;;;14.80;99.90;;;;;;5065685;28;20185;-78
2023/06/15 03:01:17;;;;;;;9.45;4.40;;;14.80;99.90;;;;;;5071729;28;20171;-78
2023/06/15 03:03:43;;;;;;;10.50;4.45;;;14.80;99.90;;;;;;5080569;28;20146;-78
2023/06/15 03:06:10;;;;;;;10.00;4.53;;;14.80;99.90;;;;;;5079973;28;20063;-78
2023/06/15 03:08:36;;;;;;;9.82;4.57;;;14.70;99.90;;;;;;5054772;28;20278;-78
2023/06/15 03:11:02;;;;;;;10.73;4.60;;;14.70;99.90;;;;;;5075942;28;20045;-78
2023/06/15 03:13:29;;;;;;;9.80;4.72;;;14.70;99.90;;;;;;5069149;28;20080;-78
2023/06/15 03:15:56;;;;;;;12.38;4.57;;;14.70;99.90;;;;;;5074968;28;20047;-78
2023/06/15 03:18:22;;;;;;;11.25;5.10;;;14.60;99.90;;;;;;5076080;28;20065;-78
2023/06/15 03:20:52;;;;;;;9.23;4.60;;;14.60;99.90;;;;;;5080847;28;20039;-78
2023/06/15 03:23:21;;;;;;;10.90;5.00;;;14.60;99.90;;;;;;5052549;28;20063;-78
2023/06/15 03:25:49;;;;;;;12.10;5.13;;;14.60;99.90;;;;;;5062447;28;20228;-78
2023/06/15 03:28:16;;;;;;;9.68;4.45;;;14.60;99.90;;;;;;5057562;28;20024;-78
2023/06/15 03:30:46;;;;;;;10.55;5.13;;;14.60;99.90;;;;;;5074691;28;20119;-78
2023/06/15 03:33:13;;;;;;;9.35;4.60;;;14.50;99.90;;;;;;5076295;28;20086;-78
2023/06/15 03:35:39;;;;;;;10.70;4.97;;;14.50;99.90;;;;;;5044589;28;20108;-78
2023/06/15 03:38:06;;;;;;;12.10;5.38;;;14.50;99.90;;;;;;5050957;28;20100;-78
2023/06/15 03:40:37;;;;;;;10.93;5.03;;;14.60;99.90;;;;;;5073993;28;20104;-78
2023/06/15 03:43:02;;;;;;;10.98;4.85;;;14.60;99.90;;;;;;5064888;28;20041;-78
2023/06/15 03:45:28;;;;;;;11.52;4.97;;;14.60;99.90;;;;;;5079992;28;20057;-78
2023/06/15 03:47:55;;;;;;;11.57;4.60;;;14.60;99.90;;;;;;5068207;28;20091;-78
2023/06/15 03:50:20;;;;;;;11.40;5.13;;;14.60;99.90;;;;;;5084618;28;20044;-78
2023/06/15 03:52:46;;;;;;;9.73;4.97;;;14.60;99.90;;;;;;5085964;28;20089;-78
2023/06/15 03:55:13;;;;;;;11.65;4.93;;;14.60;99.90;;;;;;5086361;28;20158;-78
2023/06/15 03:57:38;;;;;;;12.52;5.03;;;14.60;99.90;;;;;;5082036;28;20039;-78
2023/06/15 04:00:07;;;;;;;9.68;4.80;;;14.60;99.90;;;;;;5077125;28;20040;-78
2023/06/15 04:02:33;;;;;;;10.60;4.85;;;14.60;99.90;;;;;;5082266;28;20037;-78
2023/06/15 04:05:00;;;;;;;10.70;5.20;;;14.60;99.90;;;;;;5086503;28;20263;-78
2023/06/15 04:07:28;;;;;;;12.88;5.10;;;14.60;99.90;;;;;;5087171;28;20064;-78
2023/06/15 04:09:54;;;;;;;14.60;5.53;;;14.70;99.90;;;;;;5079018;28;20108;-78
2023/06/15 04:12:20;;;;;;;11.65;5.50;;;14.70;99.90;;;;;;5077739;28;20182;-78
2023/06/15 04:14:46;;;;;;;11.13;5.18;;;14.80;99.90;;;;;;5063935;28;20052;-78
2023/06/15 04:17:12;;;;;;;9.57;4.90;;;14.90;99.90;;;;;;5055712;28;20267;-78
2023/06/15 04:19:37;;;;;;;10.77;5.38;;;14.90;99.90;;;;;;5071524;28;20125;-78
2023/06/15 04:22:03;;;;;;;11.45;5.57;;;15.10;99.90;;;;;;5083606;28;20111;-78
2023/06/15 04:24:29;;;;;;;10.38;5.45;;;15.20;99.90;;;;;;5082204;28;20043;-78
2023/06/15 04:26:57;;;;;;;10.68;4.82;;;15.20;99.90;;;;;;5081464;28;20067;-78
2023/06/15 04:29:23;;;;;;;13.07;4.97;;;15.40;99.90;;;;;;5072453;28;20049;-79
2023/06/15 04:31:54;;;;;;;10.45;4.95;;;15.40;99.90;;;;;;5079988;28;20066;-78
2023/06/15 04:34:26;;;;;;;11.02;5.15;;;15.50;99.90;;;;;;5082826;28;20074;-78
2023/06/15 04:36:52;;;;;;;11.50;5.57;;;15.60;99.90;;;;;;5083637;28;20380;-78
2023/06/15 04:39:22;;;;;;;9.73;5.13;;;15.70;99.90;;;;;;5082094;28;20025;-78
2023/06/15 04:41:48;;;;;;;12.32;6.38;;;15.80;99.90;;;;;;5072372;28;20261;-78
2023/06/15 04:44:14;;;;;;;11.77;5.47;;;15.80;99.90;;;;;;5078693;28;20060;-78
2023/06/15 04:46:41;;;;;;;14.65;5.82;;;15.90;99.90;;;;;;5074211;28;20090;-78
2023/06/15 04:49:08;;;;;;;10.98;5.43;;;16.00;99.90;;;;;;5076429;28;20028;-78
2023/06/15 04:51:34;;;;;;;11.50;5.15;;;16.10;99.90;;;;;;5077364;28;20189;-78
2023/06/15 04:54:00;;;;;;;14.23;5.32;;;16.20;99.90;;;;;;5076578;28;20058;-78
2023/06/15 04:56:26;;;;;;;9.90;5.20;;;16.20;99.90;;;;;;5075147;28;20028;-78
2023/06/15 04:58:52;;;;;;;11.32;4.70;;;16.30;99.90;;;;;;5076128;28;20059;-78
2023/06/15 05:01:18;;;;;;;11.00;4.82;;;16.40;99.90;;;;;;5073895;28;20253;-78
2023/06/15 05:03:44;;;;;;;11.55;5.25;;;16.40;99.90;;;;;;5054413;28;20028;-78
2023/06/15 05:06:10;;;;;;;11.52;5.05;;;16.50;99.90;;;;;;5078124;28;20044;-78
2023/06/15 05:08:37;;;;;;;11.35;4.90;;;16.50;99.90;;;;;;5074570;28;20055;-78
2023/06/15 05:11:02;;;;;;;10.90;5.13;;;16.60;99.90;;;;;;5077903;28;20266;-78
2023/06/15 05:13:30;;;;;;;10.30;4.22;;;16.70;99.90;;;;;;5075513;28;20071;-78
2023/06/15 05:15:55;;;;;;;10.88;4.78;;;16.80;99.90;;;;;;5076346;28;20426;-77
2023/06/15 05:18:22;;;;;;;13.23;4.78;;;16.90;99.90;;;;;;5074055;28;20052;-78
2023/06/15 05:20:48;;;;;;;11.70;4.82;;;17.00;99.90;;;;;;5075046;28;20189;-78
2023/06/15 05:23:14;;;;;;;12.45;4.60;;;17.10;99.90;;;;;;5070884;28;20071;-78
2023/06/15 05:25:39;;;;;;;10.38;4.75;;;17.20;99.90;;;;;;5075342;28;20036;-78
2023/06/15 05:28:06;;;;;;;11.10;4.75;;;17.30;99.90;;;;;;5054769;28;20904;-78
2023/06/15 05:30:31;;;;;;;10.50;4.50;;;17.40;99.90;;;;;;5069567;28;20035;-78
2023/06/15 05:32:57;;;;;;;9.63;4.25;;;17.50;99.90;;;;;;5051134;28;20241;-78
2023/06/15 05:35:23;;;;;;;10.75;4.68;;;17.60;99.90;;;;;;5050473;28;20052;-78
2023/06/15 05:37:48;;;;;;;10.13;4.45;;;17.70;99.90;;;;;;5074030;28;20228;-78
2023/06/15 05:40:14;;;;;;;11.10;4.18;;;17.80;99.90;;;;;;5082365;28;20038;-78
2023/06/15 05:42:40;;;;;;;12.18;4.30;;;17.80;99.90;;;;;;5044674;28;20056;-78
2023/06/15 05:45:06;;;;;;;8.77;4.07;;;17.90;99.90;;;;;;5063572;28;20047;-78
2023/06/15 05:47:33;;;;;;;11.95;4.28;;;18.00;99.90;;;;;;5063863;28;20294;-78
2023/06/15 05:49:58;;;;;;;10.15;3.92;;;18.10;99.90;;;;;;5062503;28;20057;-78
2023/06/15 05:52:24;;;;;;;10.57;4.40;;;18.20;99.90;;;;;;5066397;28;20293;-78
2023/06/15 05:54:50;;;;;;;10.63;4.00;;;18.30;99.90;;;;;;5075863;28;20032;-78
2023/06/15 05:57:16;;;;;;;10.88;3.80;;;18.50;99.90;;;;;;5070621;28;20211;-78
2023/06/15 05:59:45;;;;;;;8.80;3.65;;;18.60;99.90;;;;;;5077138;28;20047;-78
2023/06/15 06:02:11;;;;;;;10.18;3.58;;;18.80;99.90;;;;;;5080416;28;20048;-78
2023/06/15 06:04:37;;;;;;;8.15;3.47;;;18.80;99.90;;;;;;5082051;28;20036;-78
2023/06/15 06:07:05;;;;;;;11.77;3.63;;;18.90;99.90;;;;;;5082126;28;20033;-78
2023/06/15 06:09:32;;;;;;;9.32;3.63;;;19.00;99.90;;;;;;5071140;28;20112;-78
2023/06/15 06:11:58;;;;;;;11.95;3.78;;;19.10;99.90;;;;;;5074809;28;20040;-77
2023/06/15 06:14:25;;;;;;;9.00;3.20;;;19.20;99.90;;;;;;5065400;28;20075;-77
2023/06/15 06:16:51;;;;;;;8.70;3.03;;;19.40;99.90;;;;;;5074858;28;20152;-77
2023/06/15 06:19:17;;;;;;;8.70;2.95;;;19.50;99.90;;;;;;5062828;28;20040;-77
2023/06/15 06:21:43;;;;;;;9.52;3.10;;;19.60;99.90;;;;;;5063868;28;20042;-77
2023/06/15 06:24:09;;;;;;;8.70;2.80;;;19.80;99.90;;;;;;5056297;28;20247;-77
2023/06/15 06:26:38;;;;;;;8.13;2.63;;;19.90;99.90;;;;;;5062828;28;20044;-77
2023/06/15 06:29:04;;;;;;;7.80;2.60;;;20.00;99.90;;;;;;5065855;28;20028;-77
2023/06/15 06:31:30;;;;;;;11.23;2.80;;;20.00;99.90;;;;;;5081466;28;20185;-77
2023/06/15 06:33:56;;;;;;;7.57;2.70;;;20.10;99.90;;;;;;5080080;28;20100;-77
2023/06/15 06:36:22;;;;;;;7.78;2.72;;;20.20;99.90;;;;;;5068530;28;20037;-77
2023/06/15 06:38:48;;;;;;;9.18;2.85;;;20.20;99.90;;;;;;5062752;28;20191;-77
2023/06/15 06:41:14;;;;;;;8.90;2.80;;;20.20;99.90;;;;;;5067784;28;20037;-77
2023/06/15 06:43:40;;;;;;;8.90;2.60;;;20.30;99.90;;;;;;5063468;28;20036;-77
2023/06/15 06:46:06;;;;;;;8.55;2.67;;;20.40;99.90;;;;;;5080331;28;20057;-77
2023/06/15 06:48:31;;;;;;;6.63;2.60;;;20.40;99.90;;;;;;5079214;28;20047;-77
2023/06/15 06:50:57;;;;;;;7.57;2.80;;;20.50;99.90;;;;;;5080770;28;20170;-77
2023/06/15 06:53:25;;;;;;;8.13;2.70;;;20.50;99.90;;;;;;5063192;28;20048;-77
2023/06/15 06:55:50;;;;;;;9.35;2.72;;;20.70;99.90;;;;;;5080548;28;20050;-77
2023/06/15 06:58:16;;;;;;;10.52;2.90;;;20.70;99.90;;;;;;5077766;28;20060;-77
2023/06/15 07:00:42;;;;;;;7.15;2.83;;;20.90;99.90;;;;;;5080077;28;20039;-77
2023/06/15 07:03:08;;;;;;;7.55;2.50;;;21.10;99.90;;;;;;5066109;28;20291;-78
2023/06/15 07:05:33;;;;;;;8.25;2.70;;;21.10;99.90;;;;;;5061998;28;20044;-78
2023/06/15 07:07:59;;;;;;;7.70;2.40;;;21.20;99.90;;;;;;5074127;28;20124;-77
2023/06/15 07:10:25;;;;;;;7.88;2.45;;;21.30;99.90;;;;;;5065631;28;20144;-78
2023/06/15 07:12:55;;;;;;;7.80;2.78;;;21.40;99.90;;;;;;5063252;28;20070;-78
2023/06/15 07:15:26;;;;;;;10.18;2.67;;;21.40;99.90;;;;;;5079527;28;20051;-78
2023/06/15 07:17:52;;;;;;;8.25;2.97;;;21.50;99.90;;;;;;5064799;28;20238;-77
2023/06/15 07:20:18;;;;;;;8.32;2.55;;;21.50;99.90;;;;;;5079661;28;20219;-77
2023/06/15 07:22:43;;;;;;;8.55;2.67;;;21.60;99.90;;;;;;5080684;28;20194;-78
2023/06/15 07:25:09;;;;;;;8.02;2.60;;;21.80;99.90;;;;;;5080670;28;20032;-78
2023/06/15 07:27:35;;;;;;;8.05;2.80;;;21.80;99.90;;;;;;5067542;28;20045;-79
2023/06/15 07:30:01;;;;;;;11.02;2.88;;;21.90;99.90;;;;;;5078441;28;20056;-78
2023/06/15 07:32:26;;;;;;;7.53;2.60;;;21.90;99.90;;;;;;5078441;28;20292;-78
2023/06/15 07:34:52;;;;;;;7.63;2.85;;;21.90;99.90;;;;;;5075654;28;20226;-78
2023/06/15 07:37:18;;;;;;;9.70;2.80;;;22.00;99.90;;;;;;5042398;28;20108;-77
2023/06/15 07:39:43;;;;;;;9.38;2.70;;;22.10;99.90;;;;;;5078446;28;20068;-77
2023/06/15 07:42:09;;;;;;;9.05;2.90;;;22.20;99.90;;;;;;5081694;28;20051;-77
2023/06/15 07:44:35;;;;;;;10.75;3.10;;;22.20;99.90;;;;;;5080396;28;20048;-77
2023/06/15 07:47:01;;;;;;;9.18;2.83;;;22.30;99.90;;;;;;5080949;28;20120;-77
2023/06/15 07:49:27;;;;;;;7.30;2.60;;;22.40;99.90;;;;;;5061742;28;20037;-77
2023/06/15 07:51:53;;;;;;;8.32;2.60;;;22.60;99.90;;;;;;5076280;28;20055;-78
2023/06/15 07:54:19;;;;;;;9.57;2.63;;;22.40;99.90;;;;;;5079139;28;20055;-78
2023/06/15 07:56:45;;;;;;;8.02;2.70;;;22.50;99.90;;;;;;5074280;28;20067;-78
2023/06/15 07:59:11;;;;;;;7.95;2.60;;;22.50;99.90;;;;;;5063167;28;20053;-78
2023/06/15 08:01:37;;;;;;;7.70;2.58;;;22.60;99.90;;;;;;5060219;28;20040;-78
2023/06/15 08:04:03;;;;;;;8.65;2.70;;;22.60;99.90;;;;;;5061339;28;20072;-78
2023/06/15 08:06:30;;;;;;;8.82;2.80;;;22.60;99.90;;;;;;5069255;28;20052;-78
2023/06/15 08:08:55;;;;;;;8.98;2.83;;;22.70;99.90;;;;;;5061267;28;20144;-77
2023/06/15 08:11:21;;;;;;;6.43;2.42;;;22.90;99.90;;;;;;5060134;28;20159;-78
2023/06/15 08:13:47;;;;;;;9.77;2.95;;;23.00;99.90;;;;;;5060145;28;20298;-78
2023/06/15 08:16:13;;;;;;;10.18;2.85;;;23.00;99.90;;;;;;5065314;28;20036;-78
2023/06/15 08:18:39;;;;;;;8.02;2.60;;;23.10;99.90;;;;;;5060264;28;20037;-78
2023/06/15 08:21:05;;;;;;;10.75;3.10;;;23.10;99.90;;;;;;5060770;28;20082;-78
2023/06/15 08:23:30;;;;;;;7.22;2.53;;;23.10;99.90;;;;;;5068900;28;20044;-78
2023/06/15 08:25:56;;;;;;;9.23;2.88;;;23.20;99.90;;;;;;5079875;28;20218;-78
2023/06/15 08:28:22;;;;;;;8.15;2.80;;;23.30;99.90;;;;;;5079554;28;20044;-78
2023/06/15 08:30:48;;;;;;;9.27;2.85;;;23.30;99.90;;;;;;5058711;28;20040;-79
2023/06/15 08:33:14;;;;;;;8.98;2.80;;;23.30;99.90;;;;;;5080830;28;20040;-79
2023/06/15 08:35:40;;;;;;;9.95;2.60;;;23.30;99.90;;;;;;5083747;28;20040;-78
2023/06/15 08:38:07;;;;;;;8.23;2.90;;;23.20;99.90;;;;;;5074377;28;20158;-79
2023/06/15 08:40:32;;;;;;;8.60;2.50;;;23.30;99.90;;;;;;5067631;28;20037;-78
2023/06/15 08:42:59;;;;;;;7.90;2.60;;;23.20;99.90;;;;;;5063950;28;20067;-78
2023/06/15 08:45:37;;;;;;;7.78;2.70;;;23.30;99.90;;;;;;5054062;28;20186;-79
2023/06/15 08:48:05;;;;;;;11.60;3.08;;;23.40;99.90;;;;;;5078640;28;20055;-79
2023/06/15 08:50:31;;;;;;;7.95;2.63;;;23.40;99.90;;;;;;5064824;28;20075;-79
2023/06/15 08:52:57;;;;;;;10.18;2.90;;;23.50;99.90;;;;;;5063766;28;20040;-78
2023/06/15 08:55:24;;;;;;;8.77;2.70;;;23.60;99.90;;;;;;5064374;28;20117;-79
2023/06/15 08:57:50;;;;;;;8.30;2.97;;;23.60;99.90;;;;;;5066604;28;20101;-79
2023/06/15 09:00:16;;;;;;;8.52;2.75;;;23.70;99.90;;;;;;5082635;28;20033;-78
2023/06/15 09:02:46;;;;;;;7.60;2.53;;;23.80;99.90;;;;;;5083385;28;20037;-79
2023/06/15 09:05:12;;;;;;;8.18;3.08;;;23.80;99.90;;;;;;5083290;28;20040;-79
2023/06/15 09:07:38;;;;;;;8.32;2.97;;;23.90;99.90;;;;;;5033548;28;20099;-78
2023/06/15 09:10:14;;;;;;;9.48;3.30;;;23.90;99.90;;;;;;5071527;28;20044;-79
2023/06/15 09:12:58;;;;;;;10.80;2.75;;;24.00;99.90;;;;;;5063288;28;20121;-78
2023/06/15 09:15:28;;;;;;;9.35;2.92;;;24.10;99.90;;;;;;5046513;28;20042;-78
2023/06/15 09:17:59;;;;;;;8.15;2.90;;;24.00;99.90;;;;;;5064014;28;20049;-78
2023/06/15 09:20:28;;;;;;;9.35;2.67;;;24.20;99.90;;;;;;5064788;28;20037;-79
2023/06/15 09:23:00;;;;;;;8.05;2.97;;;24.20;99.90;;;;;;5063005;28;20045;-79
2023/06/15 09:25:27;;;;;;;7.33;2.70;;;24.20;99.90;;;;;;5064663;28;20048;-78
2023/06/15 09:27:57;;;;;;;7.95;2.50;;;24.30;99.90;;;;;;5066328;28;20283;-79
2023/06/15 09:30:31;;;;;;;8.73;2.70;;;24.30;99.90;;;;;;5081678;28;20032;-78
2023/06/15 09:32:57;;;;;;;10.80;2.88;;;24.40;99.90;;;;;;5063922;28;20170;-78
2023/06/15 09:35:23;;;;;;;7.50;2.60;;;24.50;99.90;;;;;;5079399;28;20036;-78
2023/06/15 09:37:55;;;;;;;9.55;2.97;;;24.50;99.90;;;;;;5066977;28;20066;-78
2023/06/15 09:40:25;;;;;;;11.07;2.97;;;24.60;99.90;;;;;;5080966;28;20060;-79
2023/06/15 09:42:53;;;;;;;7.80;2.58;;;24.50;99.90;;;;;;5066313;28;20052;-79
2023/06/15 09:45:19;;;;;;;7.55;2.80;;;24.60;99.90;;;;;;5074020;28;20067;-79
2023/06/15 09:47:45;;;;;;;13.57;2.90;;;24.70;99.90;;;;;;5081993;28;20112;-79
2023/06/15 09:50:11;;;;;;;8.23;2.80;;;24.70;99.90;;;;;;5067964;28;20107;-79
2023/06/15 09:52:42;;;;;;;8.70;2.55;;;24.90;99.90;;;;;;5078008;28;20056;-78
2023/06/15 09:55:09;;;;;;;8.90;3.00;;;24.60;99.60;;;;;;5081334;28;20220;-79
2023/06/15 09:57:36;;;;;;;8.18;2.67;;;25.00;99.70;;;;;;5079878;28;20048;-78
2023/06/15 10:00:06;;;;;;;7.65;2.42;;;25.20;99.50;;;;;;5062144;28;20045;-78
2023/06/15 10:02:34;;;;;;;8.82;2.80;;;25.30;99.50;;;;;;5053131;28;20044;-79
2023/06/15 10:05:02;;;;;;;7.90;2.63;;;25.50;99.10;;;;;;5064835;28;20113;-78
2023/06/15 10:07:28;;;;;;;8.35;2.55;;;25.40;99.10;;;;;;5082199;28;20032;-80
2023/06/15 10:09:54;;;;;;;7.57;2.75;;;25.50;98.20;;;;;;5082227;28;20086;-79
2023/06/15 10:12:25;;;;;;;8.38;2.70;;;25.40;97.50;;;;;;5065533;28;20047;-79
2023/06/15 10:15:09;;;;;;;7.13;2.60;;;25.40;97.50;;;;;;5074442;28;20056;-79
2023/06/15 10:17:37;;;;;;;9.65;2.72;;;25.40;96.70;;;;;;5046113;28;20040;-79
2023/06/15 10:20:09;;;;;;;8.23;2.50;;;25.40;97.10;;;;;;5045354;28;20052;-79
2023/06/15 10:22:51;;;;;;;9.43;2.60;;;25.30;97.30;;;;;;5062220;28;20040;-79
2023/06/15 10:25:19;;;;;;;8.98;2.97;;;25.40;97.00;;;;;;5065758;28;20037;-79
2023/06/15 10:27:45;;;;;;;8.40;2.55;;;25.40;96.90;;;;;;5061822;28;20037;-79
2023/06/15 10:30:17;;;;;;;8.63;2.95;;;25.40;97.40;;;;;;5044976;28;20064;-79
2023/06/15 10:32:56;;;;;;;7.57;2.60;;;25.40;96.00;;;;;;5044982;28;20048;-79
2023/06/15 10:35:25;;;;;;;8.60;2.70;;;25.40;94.70;;;;;;5069613;28;20189;-78
2023/06/15 10:38:38;;;;;;;7.93;2.80;;;25.40;95.50;;;;;;5079460;28;20059;-79
2023/06/15 10:41:05;;;;;;;8.52;2.63;;;25.50;95.40;;;;;;5074578;28;20053;-79
2023/06/15 10:43:31;;;;;;;7.88;2.80;;;25.50;95.60;;;;;;5061734;28;20182;-79
2023/06/15 10:45:57;;;;;;;7.40;2.60;;;25.50;95.20;;;;;;5065325;28;20346;-79
2023/06/15 10:48:28;;;;;;;8.15;2.70;;;25.50;95.50;;;;;;5053215;28;20040;-79
2023/06/15 10:51:04;;;;;;;7.38;2.95;;;23.30;95.20;;;;;;5076087;28;20049;-78
2023/06/15 10:53:41;;;;;;;7.97;2.70;;;25.70;95.70;;;;;;5066910;28;20048;-78
2023/06/15 10:56:16;;;;;;;8.88;3.03;;;25.70;95.90;;;;;;5062178;28;20072;-79
2023/06/15 10:58:58;;;;;;;10.15;2.72;;;25.80;95.50;;;;;;5076712;28;20060;-79
2023/06/15 11:01:29;;;;;;;8.55;2.80;;;25.80;95.60;;;;;;5075599;28;20037;-80
2023/06/15 11:03:56;;;;;;;8.88;2.92;;;25.80;95.90;;;;;;5078271;28;20037;-79
2023/06/15 11:06:33;;;;;;;9.40;2.80;;;25.80;95.30;;;;;;5080910;28;20055;-79
2023/06/15 11:09:14;;;;;;;7.13;2.78;;;25.80;94.90;;;;;;5080774;28;20109;-79
2023/06/15 11:11:43;;;;;;;8.55;2.78;;;25.90;94.40;;;;;;5081422;28;20070;-80
2023/06/15 11:14:18;;;;;;;11.00;3.10;;;25.90;94.60;;;;;;5072396;28;20048;-79
2023/06/15 11:16:44;;;;;;;7.80;2.92;;;25.90;94.30;;;;;;5081500;28;20044;-79
2023/06/15 11:19:13;;;;;;;9.15;2.60;;;26.00;94.70;;;;;;5064183;28;20040;-79
2023/06/15 11:21:50;;;;;;;8.55;2.88;;;26.00;94.20;;;;;;5081031;28;20282;-78
2023/06/15 11:24:19;;;;;;;9.07;2.60;;;26.10;94.30;;;;;;5073455;28;20044;-80
2023/06/15 11:26:48;;;;;;;8.02;2.80;;;26.20;94.40;;;;;;5048824;28;20059;-79
2023/06/15 11:29:22;;;;;;;8.43;2.92;;;26.20;94.20;;;;;;5074951;28;20047;-79
2023/06/15 11:31:49;;;;;;;7.63;2.60;;;25.60;94.00;;;;;;5061793;28;20112;-78
2023/06/15 11:34:15;;;;;;;7.80;2.70;;;26.30;94.10;;;;;;5060373;28;20032;-79
2023/06/15 11:36:41;;;;;;;8.35;2.40;;;26.20;94.10;;;;;;5056819;28;20187;-78
2023/06/15 11:39:21;;;;;;;6.95;2.40;;;26.40;94.20;;;;;;5061321;28;20278;-78
2023/06/15 11:41:50;;;;;;;8.88;2.58;;;26.60;94.50;;;;;;5060767;28;20041;-79
2023/06/15 11:44:18;;;;;;;6.70;2.55;;;26.60;93.80;;;;;;5071642;28;20049;-78
2023/06/15 11:46:52;;;;;;;6.25;2.40;;;26.60;93.70;;;;;;5078973;28;20036;-79
2023/06/15 11:49:17;;;;;;;8.25;2.70;;;25.80;92.90;;;;;;5066905;28;20048;-79
2023/06/15 11:51:47;;;;;;;7.03;2.50;;;26.60;93.00;;;;;;5080454;28;20075;-79
2023/06/15 11:54:15;;;;;;;11.80;2.90;;;26.50;92.70;;;;;;5060320;28;20036;-79
2023/06/15 11:56:47;;;;;;;9.68;2.75;;;26.60;92.80;;;;;;5050382;28;20064;-79
2023/06/15 11:59:15;;;;;;;8.10;2.63;;;26.70;92.80;;;;;;5063246;28;20116;-79
2023/06/15 12:01:42;;;;;;;7.63;2.47;;;26.60;92.60;;;;;;5078189;28;20040;-79
2023/06/15 12:04:13;;;;;;;6.80;2.50;;;26.60;92.90;;;;;;5080494;28;20068;-79
2023/06/15 12:06:41;;;;;;;8.07;2.42;;;26.60;92.30;;;;;;5063627;28;20105;-79
2023/06/15 12:09:07;;;;;;;7.15;2.63;;;26.60;91.50;;;;;;5047805;28;20048;-79
2023/06/15 12:11:33;;;;;;;7.95;2.67;;;26.50;90.90;;;;;;5076680;28;20052;-79
2023/06/15 12:14:10;;;;;;;10.63;2.80;;;27.30;91.60;;;;;;5084692;28;20051;-79
2023/06/15 12:16:37;;;;;;;8.75;2.60;;;26.60;91.40;;;;;;5085507;28;20104;-79
2023/06/15 12:19:07;;;;;;;7.78;2.70;;;26.70;90.80;;;;;;5075745;28;20128;-79
2023/06/15 12:21:37;;;;;;;6.95;2.40;;;26.60;90.70;;;;;;5079270;28;20045;-79
2023/06/15 12:24:23;;;;;;;8.05;2.90;;;26.70;90.90;;;;;;5083355;28;20108;-80
2023/06/15 12:26:51;;;;;;;7.20;2.33;;;26.80;91.10;;;;;;5083709;28;20048;-80
2023/06/15 12:29:19;;;;;;;8.80;2.70;;;26.80;91.10;;;;;;5075196;28;20233;-80
2023/06/15 12:31:49;;;;;;;10.85;3.45;;;26.80;91.90;;;;;;5072273;28;20033;-79
2023/06/15 12:34:19;;;;;;;8.57;2.70;;;26.70;92.10;;;;;;5066019;28;20095;-80
2023/06/15 12:36:44;;;;;;;8.23;2.53;;;26.80;92.60;;;;;;5083126;28;20110;-79
2023/06/15 12:39:11;;;;;;;7.00;2.63;;;26.80;92.80;;;;;;5083535;28;20274;-79
2023/06/15 12:41:43;;;;;;;6.93;2.83;;;26.70;92.80;;;;;;5082500;28;20044;-80
2023/06/15 12:44:09;;;;;;;9.27;3.00;;;26.40;92.00;;;;;;5074148;28;20048;-80
2023/06/15 12:46:38;;;;;;;7.93;2.58;;;26.40;92.00;;;;;;5061819;28;20091;-79